sensor_id;sensor_type;location;lat;lon;timestamp;pressure;altitude;pressure_sealevel;temperature;humidity
9721;BME280;4899;42.644;23.366;2023-05-19T00:01:39;94492.25;;;11.69;100.00
9721;BME280;4899;42.644;23.366;2023-05-19T00:04:08;94493.78;;;11.62;100.00
9721;BME280;4899;42.644;23.366;2023-05-19T00:06:34;94491.66;;;11.64;100.00
9721;BME280;4899;42.644;23.366;2023-05-19T00:09:05;94479.81;;;11.63;100.00
9721;BME280;4899;42.644;23.366;2023-05-19T00:11:32;94481.19;;;11.69;100.00
9721;BME280;4899;42.644;23.366;2023-05-19T00:14:01;94491.19;;;11.70;100.00
9721;BME280;4899;42.644;23.366;2023-05-19T00:16:28;94487.41;;;11.68;100.00
9721;BME280;4899;42.644;23.366;2023-05-19T00:18:55;94480.44;;;11.68;100.00
9721;BME280;4899;42.644;23.366;2023-05-19T00:21:22;94477.72;;;11.65;100.00
9721;BME280;4899;42.644;23.366;2023-05-19T00:23:47;94464.84;;;11.56;100.00
9721;BME280;4899;42.644;23.366;2023-05-19T00:26:13;94463.47;;;11.59;100.00
9721;BME280;4899;42.644;23.366;2023-05-19T00:28:39;94470.00;;;11.56;100.00
9721;BME280;4899;42.644;23.366;2023-05-19T00:31:04;94476.81;;;11.61;100.00
9721;BME280;4899;42.644;23.366;2023-05-19T00:33:30;94468.47;;;11.55;100.00
9721;BME280;4899;42.644;23.366;2023-05-19T00:35:58;94475.44;;;11.63;100.00
9721;BME280;4899;42.644;23.366;2023-05-19T00:38:23;94486.97;;;11.66;100.00
9721;BME280;4899;42.644;23.366;2023-05-19T00:40:49;94465.28;;;11.58;100.00
9721;BME280;4899;42.644;23.366;2023-05-19T00:43:14;94469.06;;;11.69;100.00
9721;BME280;4899;42.644;23.366;2023-05-19T00:45:40;94459.97;;;11.72;100.00
9721;BME280;4899;42.644;23.366;2023-05-19T00:48:05;94459.22;;;11.63;100.00
9721;BME280;4899;42.644;23.366;2023-05-19T00:50:31;94451.66;;;11.58;100.00
9721;BME280;4899;42.644;23.366;2023-05-19T00:52:57;94457.38;;;11.63;100.00
9721;BME280;4899;42.644;23.366;2023-05-19T00:55:26;94464.53;;;11.66;100.00
9721;BME280;4899;42.644;23.366;2023-05-19T00:57:53;94466.81;;;11.68;100.00
9721;BME280;4899;42.644;23.366;2023-05-19T01:00:20;94451.19;;;11.64;100.00
9721;BME280;4899;42.644;23.366;2023-05-19T01:02:45;94452.53;;;11.70;100.00
9721;BME280;4899;42.644;23.366;2023-05-19T01:05:12;94467.69;;;11.72;100.00
9721;BME280;4899;42.644;23.366;2023-05-19T01:07:39;94455.75;;;11.67;100.00
9721;BME280;4899;42.644;23.366;2023-05-19T01:10:06;94461.47;;;11.64;100.00
9721;BME280;4899;42.644;23.366;2023-05-19T01:12:32;94456.94;;;11.61;100.00
9721;BME280;4899;42.644;23.366;2023-05-19T01:14:58;94446.84;;;11.48;100.00
9721;BME280;4899;42.644;23.366;2023-05-19T01:17:30;94473.31;;;11.57;100.00
9721;BME280;4899;42.644;23.366;2023-05-19T01:20:08;94469.44;;;11.42;100.00
9721;BME280;4899;42.644;23.366;2023-05-19T01:25:53;94473.06;;;11.32;100.00
9721;BME280;4899;42.644;23.366;2023-05-19T01:30:58;94459.59;;;11.18;100.00
9721;BME280;4899;42.644;23.366;2023-05-19T01:33:25;94468.97;;;11.23;100.00
9721;BME280;4899;42.644;23.366;2023-05-19T01:35:54;94465.19;;;11.12;100.00
9721;BME280;4899;42.644;23.366;2023-05-19T01:38:21;94464.56;;;11.15;100.00
9721;BME280;4899;42.644;23.366;2023-05-19T01:40:49;94459.28;;;11.11;100.00
9721;BME280;4899;42.644;23.366;2023-05-19T01:43:19;94468.06;;;11.10;100.00
9721;BME280;4899;42.644;23.366;2023-05-19T01:45:45;94460.94;;;11.07;100.00
9721;BME280;4899;42.644;23.366;2023-05-19T01:48:12;94473.50;;;11.08;100.00
9721;BME280;4899;42.644;23.366;2023-05-19T01:50:38;94457.16;;;11.04;100.00
9721;BME280;4899;42.644;23.366;2023-05-19T01:53:04;94463.66;;;11.10;100.00
9721;BME280;4899;42.644;23.366;2023-05-19T01:55:30;94463.22;;;11.08;100.00
9721;BME280;4899;42.644;23.366;2023-05-19T02:00:59;94477.31;;;11.02;100.00
9721;BME280;4899;42.644;23.366;2023-05-19T02:11:46;94478.22;;;10.98;100.00
9721;BME280;4899;42.644;23.366;2023-05-19T02:14:35;94471.72;;;10.92;100.00
9721;BME280;4899;42.644;23.366;2023-05-19T02:17:03;94463.19;;;10.83;100.00
9721;BME280;4899;42.644;23.366;2023-05-19T02:19:32;94472.13;;;10.85;100.00
9721;BME280;4899;42.644;23.366;2023-05-19T02:21:57;94479.56;;;10.87;100.00
9721;BME280;4899;42.644;23.366;2023-05-19T02:24:23;94466.38;;;10.79;100.00
9721;BME280;4899;42.644;23.366;2023-05-19T02:26:49;94470.94;;;10.83;100.00
9721;BME280;4899;42.644;23.366;2023-05-19T02:29:16;94433.66;;;10.54;100.00
9721;BME280;4899;42.644;23.366;2023-05-19T02:31:41;94470.63;;;10.75;100.00
9721;BME280;4899;42.644;23.366;2023-05-19T02:34:07;94474.56;;;10.73;100.00
9721;BME280;4899;42.644;23.366;2023-05-19T02:36:33;94488.63;;;10.75;100.00
9721;BME280;4899;42.644;23.366;2023-05-19T02:39:00;94487.56;;;10.68;100.00
9721;BME280;4899;42.644;23.366;2023-05-19T02:41:29;94473.47;;;10.65;100.00
9721;BME280;4899;42.644;23.366;2023-05-19T02:43:54;94477.44;;;10.71;100.00
9721;BME280;4899;42.644;23.366;2023-05-19T02:46:20;94472.88;;;10.68;100.00
9721;BME280;4899;42.644;23.366;2023-05-19T02:48:45;94474.81;;;10.63;100.00
9721;BME280;4899;42.644;23.366;2023-05-19T02:51:11;94477.69;;;10.61;100.00
9721;BME280;4899;42.644;23.366;2023-05-19T02:53:36;94481.63;;;10.59;100.00
9721;BME280;4899;42.644;23.366;2023-05-19T02:56:02;94477.25;;;10.59;100.00
9721;BME280;4899;42.644;23.366;2023-05-19T02:58:27;94481.47;;;10.64;100.00
9721;BME280;4899;42.644;23.366;2023-05-19T03:00:53;94482.13;;;10.69;100.00
9721;BME280;4899;42.644;23.366;2023-05-19T03:03:20;94471.94;;;10.64;100.00
9721;BME280;4899;42.644;23.366;2023-05-19T03:05:45;94474.09;;;10.71;100.00
9721;BME280;4899;42.644;23.366;2023-05-19T03:08:11;94483.63;;;10.70;100.00
9721;BME280;4899;42.644;23.366;2023-05-19T03:10:37;94490.28;;;10.71;100.00
9721;BME280;4899;42.644;23.366;2023-05-19T03:13:02;94490.16;;;10.76;100.00
9721;BME280;4899;42.644;23.366;2023-05-19T03:15:28;94495.00;;;10.78;100.00
9721;BME280;4899;42.644;23.366;2023-05-19T03:17:53;94459.53;;;10.49;100.00
9721;BME280;4899;42.644;23.366;2023-05-19T03:20:19;94491.34;;;10.70;100.00
9721;BME280;4899;42.644;23.366;2023-05-19T03:22:44;94490.44;;;10.66;100.00
9721;BME280;4899;42.644;23.366;2023-05-19T03:25:09;94495.59;;;10.75;100.00
9721;BME280;4899;42.644;23.366;2023-05-19T03:27:35;94463.94;;;10.57;100.00
9721;BME280;4899;42.644;23.366;2023-05-19T03:30:00;94484.25;;;10.76;100.00
9721;BME280;4899;42.644;23.366;2023-05-19T03:32:26;94486.81;;;10.85;100.00
9721;BME280;4899;42.644;23.366;2023-05-19T03:34:51;94489.09;;;10.77;100.00
9721;BME280;4899;42.644;23.366;2023-05-19T03:37:16;94500.75;;;10.84;100.00
9721;BME280;4899;42.644;23.366;2023-05-19T03:39:42;94495.75;;;10.87;100.00
9721;BME280;4899;42.644;23.366;2023-05-19T03:42:07;94492.75;;;10.94;100.00
9721;BME280;4899;42.644;23.366;2023-05-19T03:44:33;94493.81;;;11.01;100.00
9721;BME280;4899;42.644;23.366;2023-05-19T03:46:58;94496.38;;;10.93;100.00
9721;BME280;4899;42.644;23.366;2023-05-19T03:49:24;94501.06;;;10.99;100.00
9721;BME280;4899;42.644;23.366;2023-05-19T03:51:49;94508.34;;;11.06;100.00
9721;BME280;4899;42.644;23.366;2023-05-19T03:54:15;94488.81;;;11.14;100.00
9721;BME280;4899;42.644;23.366;2023-05-19T03:56:41;94513.22;;;11.25;100.00
9721;BME280;4899;42.644;23.366;2023-05-19T03:59:07;94496.53;;;11.22;100.00
9721;BME280;4899;42.644;23.366;2023-05-19T04:01:35;94511.97;;;11.39;100.00
9721;BME280;4899;42.644;23.366;2023-05-19T04:04:01;94516.06;;;11.49;100.00
9721;BME280;4899;42.644;23.366;2023-05-19T04:06:26;94481.09;;;11.31;100.00
9721;BME280;4899;42.644;23.366;2023-05-19T04:08:52;94510.16;;;11.66;100.00
9721;BME280;4899;42.644;23.366;2023-05-19T04:11:17;94504.84;;;11.71;100.00
9721;BME280;4899;42.644;23.366;2023-05-19T04:13:44;94483.34;;;11.50;100.00
9721;BME280;4899;42.644;23.366;2023-05-19T04:16:10;94521.50;;;11.74;100.00
9721;BME280;4899;42.644;23.366;2023-05-19T04:18:35;94523.59;;;11.89;100.00
9721;BME280;4899;42.644;23.366;2023-05-19T04:21:01;94524.38;;;11.98;100.00
9721;BME280;4899;42.644;23.366;2023-05-19T04:23:26;94534.81;;;12.01;100.00
9721;BME280;4899;42.644;23.366;2023-05-19T04:25:52;94527.97;;;12.06;100.00
9721;BME280;4899;42.644;23.366;2023-05-19T04:28:18;94532.25;;;12.01;100.00
9721;BME280;4899;42.644;23.366;2023-05-19T04:30:43;94525.84;;;12.08;100.00
9721;BME280;4899;42.644;23.366;2023-05-19T04:33:11;94528.22;;;12.30;100.00
9721;BME280;4899;42.644;23.366;2023-05-19T04:35:37;94526.34;;;12.39;100.00
9721;BME280;4899;42.644;23.366;2023-05-19T04:38:04;94546.38;;;12.42;100.00
9721;BME280;4899;42.644;23.366;2023-05-19T04:40:29;94529.53;;;12.45;100.00
9721;BME280;4899;42.644;23.366;2023-05-19T04:42:55;94535.09;;;12.55;100.00
9721;BME280;4899;42.644;23.366;2023-05-19T04:45:21;94526.41;;;12.60;100.00
9721;BME280;4899;42.644;23.366;2023-05-19T04:47:48;94524.56;;;12.69;100.00
9721;BME280;4899;42.644;23.366;2023-05-19T04:50:14;94535.19;;;12.68;100.00
9721;BME280;4899;42.644;23.366;2023-05-19T04:52:40;94531.34;;;12.74;100.00
9721;BME280;4899;42.644;23.366;2023-05-19T04:55:07;94533.31;;;12.77;100.00
9721;BME280;4899;42.644;23.366;2023-05-19T04:57:32;94535.09;;;12.85;100.00
9721;BME280;4899;42.644;23.366;2023-05-19T04:59:58;94534.38;;;12.76;100.00
9721;BME280;4899;42.644;23.366;2023-05-19T05:02:26;94544.50;;;12.89;100.00
9721;BME280;4899;42.644;23.366;2023-05-19T05:04:52;94543.03;;;13.01;100.00
9721;BME280;4899;42.644;23.366;2023-05-19T05:07:22;94541.41;;;12.96;100.00
9721;BME280;4899;42.644;23.366;2023-05-19T05:09:47;94531.66;;;13.02;100.00
9721;BME280;4899;42.644;23.366;2023-05-19T05:12:14;94539.09;;;13.03;100.00
9721;BME280;4899;42.644;23.366;2023-05-19T05:14:40;94528.75;;;13.03;100.00
9721;BME280;4899;42.644;23.366;2023-05-19T05:17:06;94527.44;;;12.97;100.00
9721;BME280;4899;42.644;23.366;2023-05-19T05:19:32;94533.91;;;13.03;100.00
9721;BME280;4899;42.644;23.366;2023-05-19T05:21:58;94541.16;;;13.18;100.00
9721;BME280;4899;42.644;23.366;2023-05-19T05:24:24;94535.06;;;13.14;100.00
9721;BME280;4899;42.644;23.366;2023-05-19T05:26:49;94545.84;;;13.16;100.00
9721;BME280;4899;42.644;23.366;2023-05-19T05:29:15;94541.91;;;13.19;100.00
9721;BME280;4899;42.644;23.366;2023-05-19T05:31:40;94545.38;;;13.23;100.00
9721;BME280;4899;42.644;23.366;2023-05-19T05:34:06;94548.19;;;13.30;100.00
9721;BME280;4899;42.644;23.366;2023-05-19T05:36:32;94537.97;;;13.34;100.00
9721;BME280;4899;42.644;23.366;2023-05-19T05:38:59;94542.34;;;13.42;100.00
9721;BME280;4899;42.644;23.366;2023-05-19T05:41:29;94543.84;;;13.43;100.00
9721;BME280;4899;42.644;23.366;2023-05-19T05:44:00;94541.50;;;13.50;100.00
9721;BME280;4899;42.644;23.366;2023-05-19T05:46:25;94538.72;;;13.55;100.00
9721;BME280;4899;42.644;23.366;2023-05-19T05:48:51;94532.94;;;13.58;100.00
9721;BME280;4899;42.644;23.366;2023-05-19T05:51:16;94547.84;;;13.73;100.00
9721;BME280;4899;42.644;23.366;2023-05-19T05:53:43;94547.09;;;13.73;100.00
9721;BME280;4899;42.644;23.366;2023-05-19T05:56:13;94558.56;;;13.84;100.00
9721;BME280;4899;42.644;23.366;2023-05-19T05:58:39;94564.31;;;13.90;100.00
9721;BME280;4899;42.644;23.366;2023-05-19T06:01:05;94567.44;;;13.95;100.00
9721;BME280;4899;42.644;23.366;2023-05-19T06:03:44;94571.84;;;13.95;100.00
9721;BME280;4899;42.644;23.366;2023-05-19T06:06:10;94560.44;;;13.96;100.00
9721;BME280;4899;42.644;23.366;2023-05-19T06:08:36;94574.25;;;14.12;100.00
9721;BME280;4899;42.644;23.366;2023-05-19T06:11:01;94581.75;;;14.26;100.00
9721;BME280;4899;42.644;23.366;2023-05-19T06:13:34;94573.78;;;14.31;100.00
9721;BME280;4899;42.644;23.366;2023-05-19T06:15:59;94576.72;;;14.41;100.00
9721;BME280;4899;42.644;23.366;2023-05-19T06:18:25;94583.22;;;14.48;100.00
9721;BME280;4899;42.644;23.366;2023-05-19T06:20:50;94579.97;;;14.51;100.00
9721;BME280;4899;42.644;23.366;2023-05-19T06:23:15;94581.06;;;14.62;100.00
9721;BME280;4899;42.644;23.366;2023-05-19T06:25:41;94579.13;;;14.71;100.00
9721;BME280;4899;42.644;23.366;2023-05-19T06:28:06;94571.47;;;14.74;100.00
9721;BME280;4899;42.644;23.366;2023-05-19T06:30:32;94575.56;;;14.75;100.00
9721;BME280;4899;42.644;23.366;2023-05-19T06:32:57;94581.06;;;14.86;100.00
9721;BME280;4899;42.644;23.366;2023-05-19T06:35:23;94572.78;;;14.93;100.00
9721;BME280;4899;42.644;23.366;2023-05-19T06:37:48;94582.47;;;15.08;100.00
9721;BME280;4899;42.644;23.366;2023-05-19T06:40:13;94577.06;;;15.13;100.00
9721;BME280;4899;42.644;23.366;2023-05-19T06:42:39;94582.56;;;15.24;100.00
9721;BME280;4899;42.644;23.366;2023-05-19T06:45:05;94580.81;;;15.28;100.00
9721;BME280;4899;42.644;23.366;2023-05-19T06:47:30;94579.19;;;15.35;100.00
9721;BME280;4899;42.644;23.366;2023-05-19T06:49:56;94579.91;;;15.48;100.00
9721;BME280;4899;42.644;23.366;2023-05-19T06:52:22;94584.66;;;15.58;100.00
9721;BME280;4899;42.644;23.366;2023-05-19T06:54:48;94587.75;;;15.76;100.00
9721;BME280;4899;42.644;23.366;2023-05-19T06:57:13;94590.09;;;15.81;100.00
9721;BME280;4899;42.644;23.366;2023-05-19T06:59:39;94595.00;;;15.98;100.00
9721;BME280;4899;42.644;23.366;2023-05-19T07:02:11;94599.06;;;16.12;100.00
9721;BME280;4899;42.644;23.366;2023-05-19T07:04:36;94598.66;;;16.25;100.00
9721;BME280;4899;42.644;23.366;2023-05-19T07:07:02;94594.69;;;16.44;100.00
9721;BME280;4899;42.644;23.366;2023-05-19T07:09:27;94598.88;;;16.64;100.00
9721;BME280;4899;42.644;23.366;2023-05-19T07:11:53;94598.31;;;16.71;100.00
9721;BME280;4899;42.644;23.366;2023-05-19T07:14:20;94600.81;;;16.83;100.00
9721;BME280;4899;42.644;23.366;2023-05-19T07:16:45;94602.31;;;17.00;100.00
9721;BME280;4899;42.644;23.366;2023-05-19T07:19:11;94610.72;;;16.93;100.00
9721;BME280;4899;42.644;23.366;2023-05-19T07:21:36;94603.41;;;16.83;100.00
9721;BME280;4899;42.644;23.366;2023-05-19T07:24:02;94611.13;;;16.79;100.00
9721;BME280;4899;42.644;23.366;2023-05-19T07:26:28;94610.91;;;16.69;100.00
9721;BME280;4899;42.644;23.366;2023-05-19T07:28:53;94606.34;;;16.66;100.00
9721;BME280;4899;42.644;23.366;2023-05-19T07:31:19;94608.91;;;16.50;100.00
9721;BME280;4899;42.644;23.366;2023-05-19T07:33:45;94604.16;;;16.36;100.00
9721;BME280;4899;42.644;23.366;2023-05-19T07:36:10;94603.38;;;16.36;100.00
9721;BME280;4899;42.644;23.366;2023-05-19T07:38:36;94606.00;;;16.51;100.00
9721;BME280;4899;42.644;23.366;2023-05-19T07:41:02;94611.09;;;16.48;100.00
9721;BME280;4899;42.644;23.366;2023-05-19T07:43:27;94610.13;;;16.68;100.00
9721;BME280;4899;42.644;23.366;2023-05-19T07:45:53;94605.44;;;16.89;100.00
9721;BME280;4899;42.644;23.366;2023-05-19T07:48:20;94607.31;;;17.24;100.00
9721;BME280;4899;42.644;23.366;2023-05-19T07:50:51;94608.38;;;17.74;100.00
9721;BME280;4899;42.644;23.366;2023-05-19T07:53:17;94597.41;;;18.03;100.00
9721;BME280;4899;42.644;23.366;2023-05-19T07:55:43;94604.16;;;17.85;100.00
9721;BME280;4899;42.644;23.366;2023-05-19T07:58:08;94597.31;;;18.19;100.00
9721;BME280;4899;42.644;23.366;2023-05-19T08:00:34;94608.84;;;18.18;100.00
9721;BME280;4899;42.644;23.366;2023-05-19T08:02:59;94607.13;;;18.49;100.00
9721;BME280;4899;42.644;23.366;2023-05-19T08:05:25;94608.00;;;18.56;100.00
9721;BME280;4899;42.644;23.366;2023-05-19T08:07:51;94601.44;;;18.62;100.00
9721;BME280;4899;42.644;23.366;2023-05-19T08:10:17;94605.28;;;18.95;100.00
9721;BME280;4899;42.644;23.366;2023-05-19T08:12:42;94613.22;;;19.02;100.00
9721;BME280;4899;42.644;23.366;2023-05-19T08:15:08;94605.56;;;19.13;100.00
9721;BME280;4899;42.644;23.366;2023-05-19T08:17:37;94607.00;;;19.36;100.00
9721;BME280;4899;42.644;23.366;2023-05-19T08:20:06;94603.19;;;19.30;100.00
9721;BME280;4899;42.644;23.366;2023-05-19T08:22:34;94606.41;;;19.47;100.00
9721;BME280;4899;42.644;23.366;2023-05-19T08:25:00;94609.75;;;19.47;100.00
9721;BME280;4899;42.644;23.366;2023-05-19T08:27:25;94604.28;;;19.56;100.00
9721;BME280;4899;42.644;23.366;2023-05-19T08:29:51;94611.00;;;19.83;100.00
9721;BME280;4899;42.644;23.366;2023-05-19T08:32:16;94601.63;;;20.16;100.00
9721;BME280;4899;42.644;23.366;2023-05-19T08:34:42;94600.19;;;20.22;100.00
9721;BME280;4899;42.644;23.366;2023-05-19T08:37:07;94596.91;;;20.28;100.00
9721;BME280;4899;42.644;23.366;2023-05-19T08:39:33;94591.25;;;20.23;93.54
9721;BME280;4899;42.644;23.366;2023-05-19T08:41:59;94606.84;;;20.16;94.03
9721;BME280;4899;42.644;23.366;2023-05-19T08:44:25;94594.38;;;20.02;96.55
9721;BME280;4899;42.644;23.366;2023-05-19T08:46:53;94608.16;;;20.33;91.38
9721;BME280;4899;42.644;23.366;2023-05-19T08:49:25;94604.59;;;20.48;87.29
9721;BME280;4899;42.644;23.366;2023-05-19T08:54:52;94603.53;;;20.56;83.41
9721;BME280;4899;42.644;23.366;2023-05-19T08:57:20;94602.75;;;20.52;85.05
9721;BME280;4899;42.644;23.366;2023-05-19T08:59:47;94582.34;;;20.31;89.96
9721;BME280;4899;42.644;23.366;2023-05-19T09:02:15;94598.69;;;20.21;89.46
9721;BME280;4899;42.644;23.366;2023-05-19T09:04:41;94599.03;;;20.16;89.60
9721;BME280;4899;42.644;23.366;2023-05-19T09:07:12;94596.03;;;20.14;86.75
9721;BME280;4899;42.644;23.366;2023-05-19T09:09:37;94593.44;;;20.17;87.94
9721;BME280;4899;42.644;23.366;2023-05-19T09:12:07;94589.25;;;20.09;85.85
9721;BME280;4899;42.644;23.366;2023-05-19T09:14:32;94583.16;;;19.98;90.51
9721;BME280;4899;42.644;23.366;2023-05-19T09:16:59;94591.13;;;20.09;92.46
9721;BME280;4899;42.644;23.366;2023-05-19T09:19:27;94586.28;;;20.11;85.30
9721;BME280;4899;42.644;23.366;2023-05-19T09:22:00;94584.84;;;20.17;91.13
9721;BME280;4899;42.644;23.366;2023-05-19T09:24:27;94580.84;;;20.26;90.71
9721;BME280;4899;42.644;23.366;2023-05-19T09:26:57;94586.66;;;20.46;88.80
9721;BME280;4899;42.644;23.366;2023-05-19T09:29:23;94585.31;;;20.63;85.41
9721;BME280;4899;42.644;23.366;2023-05-19T09:31:50;94581.28;;;20.76;86.59
9721;BME280;4899;42.644;23.366;2023-05-19T09:34:16;94587.75;;;20.89;82.46
9721;BME280;4899;42.644;23.366;2023-05-19T09:36:42;94575.13;;;21.02;82.47
9721;BME280;4899;42.644;23.366;2023-05-19T09:39:18;94580.34;;;21.02;76.52
9721;BME280;4899;42.644;23.366;2023-05-19T09:41:44;94574.31;;;20.91;79.70
9721;BME280;4899;42.644;23.366;2023-05-19T09:44:20;94582.88;;;20.88;76.43
9721;BME280;4899;42.644;23.366;2023-05-19T09:46:50;94584.78;;;20.91;79.85
9721;BME280;4899;42.644;23.366;2023-05-19T09:49:26;94573.63;;;21.05;76.86
9721;BME280;4899;42.644;23.366;2023-05-19T09:52:02;94581.94;;;21.17;75.41
9721;BME280;4899;42.644;23.366;2023-05-19T09:54:28;94582.41;;;21.27;74.66
9721;BME280;4899;42.644;23.366;2023-05-19T09:56:59;94574.66;;;21.48;71.56
9721;BME280;4899;42.644;23.366;2023-05-19T09:59:26;94574.38;;;21.71;69.67
9721;BME280;4899;42.644;23.366;2023-05-19T10:01:57;94571.75;;;21.67;68.86
9721;BME280;4899;42.644;23.366;2023-05-19T10:04:27;94566.59;;;21.82;69.59
9721;BME280;4899;42.644;23.366;2023-05-19T10:06:54;94573.34;;;21.97;73.07
9721;BME280;4899;42.644;23.366;2023-05-19T10:09:24;94559.19;;;22.08;68.45
9721;BME280;4899;42.644;23.366;2023-05-19T10:11:54;94561.84;;;22.23;63.36
9721;BME280;4899;42.644;23.366;2023-05-19T10:14:28;94571.63;;;22.58;64.17
9721;BME280;4899;42.644;23.366;2023-05-19T10:16:57;94553.66;;;22.88;65.66
9721;BME280;4899;42.644;23.366;2023-05-19T10:19:24;94562.63;;;23.12;63.72
9721;BME280;4899;42.644;23.366;2023-05-19T10:21:51;94558.81;;;23.35;62.85
9721;BME280;4899;42.644;23.366;2023-05-19T10:24:18;94567.09;;;23.05;61.01
9721;BME280;4899;42.644;23.366;2023-05-19T10:26:57;94559.19;;;23.37;61.06
9721;BME280;4899;42.644;23.366;2023-05-19T10:29:27;94556.91;;;23.42;61.27
9721;BME280;4899;42.644;23.366;2023-05-19T10:31:57;94545.59;;;23.52;60.06
9721;BME280;4899;42.644;23.366;2023-05-19T10:34:49;94551.56;;;23.71;56.46
9721;BME280;4899;42.644;23.366;2023-05-19T10:40:27;94541.91;;;24.30;55.22
9721;BME280;4899;42.644;23.366;2023-05-19T10:43:38;94552.31;;;24.89;50.45
9721;BME280;4899;42.644;23.366;2023-05-19T10:46:09;94555.63;;;25.04;53.34
9721;BME280;4899;42.644;23.366;2023-05-19T10:48:34;94544.47;;;25.61;51.99
9721;BME280;4899;42.644;23.366;2023-05-19T10:51:03;94551.69;;;26.45;50.65
9721;BME280;4899;42.644;23.366;2023-05-19T10:53:32;94529.13;;;26.87;47.04
9721;BME280;4899;42.644;23.366;2023-05-19T10:56:00;94546.13;;;28.08;48.59
9721;BME280;4899;42.644;23.366;2023-05-19T11:01:11;94532.66;;;29.58;44.24
9721;BME280;4899;42.644;23.366;2023-05-19T11:03:45;94542.84;;;30.27;41.56
9721;BME280;4899;42.644;23.366;2023-05-19T11:08:42;94547.56;;;31.39;42.49
9721;BME280;4899;42.644;23.366;2023-05-19T11:11:14;94529.72;;;32.24;36.59
9721;BME280;4899;42.644;23.366;2023-05-19T11:13:53;94526.63;;;32.93;36.01
9721;BME280;4899;42.644;23.366;2023-05-19T11:16:30;94532.09;;;33.53;35.24
9721;BME280;4899;42.644;23.366;2023-05-19T11:18:58;94556.16;;;34.05;37.40
9721;BME280;4899;42.644;23.366;2023-05-19T11:21:23;94560.56;;;34.17;37.38
9721;BME280;4899;42.644;23.366;2023-05-19T11:24:07;94537.63;;;33.31;36.55
9721;BME280;4899;42.644;23.366;2023-05-19T11:26:39;94524.03;;;31.16;35.67
9721;BME280;4899;42.644;23.366;2023-05-19T11:29:06;94549.31;;;30.13;39.18
9721;BME280;4899;42.644;23.366;2023-05-19T11:31:32;94546.13;;;29.64;39.10
9721;BME280;4899;42.644;23.366;2023-05-19T11:34:00;94540.56;;;29.17;40.15
9721;BME280;4899;42.644;23.366;2023-05-19T11:36:27;94532.84;;;28.61;40.31
9721;BME280;4899;42.644;23.366;2023-05-19T11:38:53;94531.78;;;27.70;41.16
9721;BME280;4899;42.644;23.366;2023-05-19T11:41:19;94535.63;;;26.82;42.33
9721;BME280;4899;42.644;23.366;2023-05-19T11:43:46;94532.00;;;25.65;44.56
9721;BME280;4899;42.644;23.366;2023-05-19T11:46:12;94547.13;;;24.27;49.37
9721;BME280;4899;42.644;23.366;2023-05-19T11:48:38;94563.38;;;22.56;55.38
9721;BME280;4899;42.644;23.366;2023-05-19T11:51:05;94575.22;;;21.16;74.15
9721;BME280;4899;42.644;23.366;2023-05-19T11:53:30;94558.28;;;19.74;100.00
9721;BME280;4899;42.644;23.366;2023-05-19T11:56:02;94553.13;;;18.68;100.00
9721;BME280;4899;42.644;23.366;2023-05-19T11:58:27;94545.03;;;17.86;100.00
9721;BME280;4899;42.644;23.366;2023-05-19T12:00:53;94561.00;;;17.30;100.00
9721;BME280;4899;42.644;23.366;2023-05-19T12:03:20;94589.41;;;17.03;100.00
9721;BME280;4899;42.644;23.366;2023-05-19T12:05:47;94593.69;;;16.80;100.00
9721;BME280;4899;42.644;23.366;2023-05-19T12:08:14;94603.22;;;16.60;100.00
9721;BME280;4899;42.644;23.366;2023-05-19T12:10:40;94597.91;;;16.25;100.00
9721;BME280;4899;42.644;23.366;2023-05-19T12:13:06;94583.16;;;15.85;100.00
9721;BME280;4899;42.644;23.366;2023-05-19T12:15:33;94592.22;;;15.63;100.00
9721;BME280;4899;42.644;23.366;2023-05-19T12:18:00;94598.72;;;15.33;100.00
9721;BME280;4899;42.644;23.366;2023-05-19T12:20:28;94597.91;;;15.17;100.00
9721;BME280;4899;42.644;23.366;2023-05-19T12:22:57;94592.72;;;15.17;100.00
9721;BME280;4899;42.644;23.366;2023-05-19T12:25:24;94586.88;;;15.07;100.00
9721;BME280;4899;42.644;23.366;2023-05-19T12:27:50;94582.59;;;14.99;100.00
9721;BME280;4899;42.644;23.366;2023-05-19T12:30:25;94574.06;;;14.87;100.00
9721;BME280;4899;42.644;23.366;2023-05-19T12:32:52;94584.28;;;15.07;100.00
9721;BME280;4899;42.644;23.366;2023-05-19T12:35:18;94577.16;;;15.29;100.00
9721;BME280;4899;42.644;23.366;2023-05-19T12:37:44;94587.38;;;15.62;100.00
9721;BME280;4899;42.644;23.366;2023-05-19T12:40:14;94574.59;;;15.97;100.00
9721;BME280;4899;42.644;23.366;2023-05-19T12:42:43;94570.38;;;16.52;100.00
9721;BME280;4899;42.644;23.366;2023-05-19T12:45:09;94562.16;;;17.13;100.00
9721;BME280;4899;42.644;23.366;2023-05-19T12:47:35;94563.56;;;17.45;100.00
9721;BME280;4899;42.644;23.366;2023-05-19T12:50:05;94547.03;;;17.73;100.00
9721;BME280;4899;42.644;23.366;2023-05-19T12:52:41;94548.16;;;18.37;100.00
9721;BME280;4899;42.644;23.366;2023-05-19T12:55:08;94534.88;;;19.21;100.00
9721;BME280;4899;42.644;23.366;2023-05-19T12:57:39;94532.88;;;19.71;100.00
9721;BME280;4899;42.644;23.366;2023-05-19T13:00:11;94544.72;;;20.36;100.00
9721;BME280;4899;42.644;23.366;2023-05-19T13:03:15;94541.91;;;21.97;78.81
9721;BME280;4899;42.644;23.366;2023-05-19T13:05:42;94541.03;;;23.81;71.37
9721;BME280;4899;42.644;23.366;2023-05-19T13:08:10;94543.22;;;23.90;67.49
9721;BME280;4899;42.644;23.366;2023-05-19T13:10:37;94530.63;;;23.49;63.91
9721;BME280;4899;42.644;23.366;2023-05-19T13:13:03;94533.63;;;24.24;61.50
9721;BME280;4899;42.644;23.366;2023-05-19T13:15:31;94538.56;;;24.71;59.40
9721;BME280;4899;42.644;23.366;2023-05-19T13:17:59;94538.75;;;25.35;57.75
9721;BME280;4899;42.644;23.366;2023-05-19T13:20:25;94528.34;;;26.66;55.13
9721;BME280;4899;42.644;23.366;2023-05-19T13:22:50;94530.78;;;27.64;53.66
9721;BME280;4899;42.644;23.366;2023-05-19T13:25:16;94538.66;;;27.67;53.09
9721;BME280;4899;42.644;23.366;2023-05-19T13:27:43;94542.97;;;29.11;47.55
9721;BME280;4899;42.644;23.366;2023-05-19T13:30:09;94537.50;;;30.40;47.10
9721;BME280;4899;42.644;23.366;2023-05-19T13:32:34;94532.78;;;31.16;45.12